createdAt,value
2023-01-17T00:01:17.239Z,96362.78
2023-01-17T00:04:03.031Z,96362.69
2023-01-17T00:06:48.446Z,96350.31
2023-01-17T00:09:33.920Z,96350.31
2023-01-17T00:12:02.098Z,96349.88
2023-01-17T00:14:29.091Z,96346.31
2023-01-17T00:16:56.015Z,96348.59
2023-01-17T00:19:41.722Z,96346.19
2023-01-17T00:22:46.425Z,96354.94
2023-01-17T00:25:33.274Z,96330.97
2023-01-17T00:28:00.150Z,96368.75
2023-01-17T00:30:27.140Z,96367.19
2023-01-17T00:32:53.959Z,96372.59
2023-01-17T00:35:21.923Z,96375.22
2023-01-17T00:37:48.735Z,96371.31
2023-01-17T00:40:15.568Z,96382.84
2023-01-17T00:42:42.392Z,96375.34
2023-01-17T00:45:28.397Z,96381.56
2023-01-17T00:48:13.740Z,96385.38
2023-01-17T00:50:59.089Z,96330.13
2023-01-17T00:53:44.687Z,96390.66
2023-01-17T00:56:30.079Z,96401.00
2023-01-17T00:59:15.580Z,96404.78
2023-01-17T01:02:01.069Z,96408.97
2023-01-17T01:04:46.864Z,96411.63
2023-01-17T01:07:32.156Z,96419.28
2023-01-17T01:10:17.653Z,96416.50
2023-01-17T01:13:03.134Z,96416.00
2023-01-17T01:15:48.556Z,96419.81
2023-01-17T01:18:34.135Z,96419.72
2023-01-17T01:21:22.523Z,96420.84
2023-01-17T01:24:07.881Z,96422.66
2023-01-17T01:26:53.200Z,96381.59
2023-01-17T01:29:38.681Z,96415.97
2023-01-17T01:32:24.024Z,96400.47
2023-01-17T01:34:50.950Z,96410.06
2023-01-17T01:37:17.798Z,96419.28
2023-01-17T01:39:44.676Z,96409.97
2023-01-17T01:42:15.580Z,96402.16
2023-01-17T01:44:49.821Z,96387.97
2023-01-17T01:47:37.613Z,96430.34
2023-01-17T01:50:06.222Z,96413.63
2023-01-17T01:52:33.829Z,96400.16
2023-01-17T01:55:06.202Z,96399.81
2023-01-17T01:57:36.908Z,96422.19
2023-01-17T02:00:30.801Z,96414.53
2023-01-17T02:03:00.140Z,96420.19
2023-01-17T02:05:27.404Z,96412.72
2023-01-17T02:08:04.963Z,96406.19
2023-01-17T02:10:33.404Z,96402.25
2023-01-17T02:13:00.328Z,96373.88
2023-01-17T02:15:32.979Z,96399.28
2023-01-17T02:18:25.731Z,96366.63
2023-01-17T02:20:58.704Z,96366.91
2023-01-17T02:23:56.549Z,96412.78
2023-01-17T02:26:26.134Z,96410.69
2023-01-17T02:28:55.900Z,96407.81
2023-01-17T02:31:32.724Z,96401.66
2023-01-17T02:34:31.966Z,96403.13
2023-01-17T02:37:04.607Z,96399.97
2023-01-17T02:39:39.973Z,96402.06
2023-01-17T02:42:09.782Z,96393.59
2023-01-17T02:44:43.246Z,96372.25
2023-01-17T02:47:23.597Z,96395.59
2023-01-17T02:49:52.718Z,96393.34
2023-01-17T02:52:31.358Z,96391.34
2023-01-17T02:55:03.761Z,96386.72
2023-01-17T02:57:47.885Z,96379.78
2023-01-17T03:00:22.433Z,96381.94
2023-01-17T03:02:49.372Z,96390.72
2023-01-17T03:05:20.260Z,96390.81
2023-01-17T03:07:48.395Z,96390.28
2023-01-17T03:10:15.579Z,96361.94
2023-01-17T03:12:42.443Z,96389.19
2023-01-17T03:15:13.581Z,96389.84
2023-01-17T03:17:50.777Z,96392.88
2023-01-17T03:20:17.786Z,96395.09
2023-01-17T03:22:44.645Z,96392.72
2023-01-17T03:25:11.645Z,96392.41
2023-01-17T03:27:38.502Z,96385.47
2023-01-17T03:30:06.384Z,96396.97
2023-01-17T03:32:33.283Z,96393.69
2023-01-17T03:35:00.226Z,96382.44
2023-01-17T03:37:27.064Z,96388.66
2023-01-17T03:39:53.943Z,96394.72
2023-01-17T03:42:20.847Z,96396.41
2023-01-17T03:44:47.674Z,96387.59
2023-01-17T03:47:14.603Z,96400.31
2023-01-17T03:49:41.555Z,96398.16
2023-01-17T03:52:08.404Z,96387.84
2023-01-17T03:54:35.350Z,96401.50
2023-01-17T03:57:02.181Z,96399.75
2023-01-17T03:59:29.105Z,96403.09
2023-01-17T04:01:55.997Z,96408.31
2023-01-17T04:04:23.006Z,96409.91
2023-01-17T04:06:49.824Z,96408.44
2023-01-17T04:09:16.718Z,96404.75
2023-01-17T04:11:43.671Z,96380.69
2023-01-17T04:14:10.548Z,96418.97
2023-01-17T04:16:37.497Z,96421.31
2023-01-17T04:19:04.385Z,96422.19
2023-01-17T04:21:31.256Z,96420.38
2023-01-17T04:23:58.214Z,96419.72
2023-01-17T04:26:25.060Z,96417.75
2023-01-17T04:28:51.916Z,96423.69
2023-01-17T04:31:18.871Z,96417.19
2023-01-17T04:33:45.715Z,96419.59
2023-01-17T04:36:12.599Z,96423.88
2023-01-17T04:38:39.463Z,96422.75
2023-01-17T04:41:06.282Z,96427.50
2023-01-17T04:43:33.130Z,96419.03
2023-01-17T04:46:00.029Z,96419.44
2023-01-17T04:48:27.302Z,96426.47
2023-01-17T04:51:01.349Z,96398.09
2023-01-17T04:53:28.396Z,96427.34
2023-01-17T04:55:55.390Z,96427.00
2023-01-17T04:58:23.353Z,96430.50
2023-01-17T05:00:51.844Z,96432.13
2023-01-17T05:03:19.764Z,96424.78
2023-01-17T05:05:47.071Z,96413.09
2023-01-17T05:08:14.392Z,96422.44
2023-01-17T05:10:41.358Z,96427.94
2023-01-17T05:13:09.338Z,96433.00
2023-01-17T05:15:36.493Z,96440.44
2023-01-17T05:18:08.497Z,96455.22
2023-01-17T05:20:35.649Z,96445.88
2023-01-17T05:23:03.043Z,96453.69
2023-01-17T05:25:31.032Z,96446.31
2023-01-17T05:28:00.105Z,96444.75
2023-01-17T05:30:28.407Z,96449.81
2023-01-17T05:32:56.294Z,96463.44
2023-01-17T05:35:25.564Z,96424.09
2023-01-17T05:37:52.771Z,96460.31
2023-01-17T05:40:21.305Z,96463.81
2023-01-17T05:42:49.248Z,96439.28
2023-01-17T05:45:17.158Z,96458.31
2023-01-17T05:47:48.500Z,96462.97
2023-01-17T05:50:23.647Z,96427.53
2023-01-17T05:52:55.237Z,96464.88
2023-01-17T05:55:22.571Z,96473.81
2023-01-17T05:57:50.388Z,96477.75
2023-01-17T06:00:17.880Z,96493.34
2023-01-17T06:02:45.484Z,96479.66
2023-01-17T06:05:12.670Z,96477.63
2023-01-17T06:07:39.786Z,96483.84
2023-01-17T06:10:07.364Z,96492.00
2023-01-17T06:12:34.384Z,96499.44
2023-01-17T06:15:01.355Z,96499.38
2023-01-17T06:17:28.298Z,96493.84
2023-01-17T06:19:55.195Z,96496.19
2023-01-17T06:22:22.181Z,96502.41
2023-01-17T06:24:49.054Z,96496.88
2023-01-17T06:27:16.096Z,96473.56
2023-01-17T06:29:43.130Z,96489.47
2023-01-17T06:32:10.252Z,96496.06
2023-01-17T06:34:38.142Z,96499.94
2023-01-17T06:37:05.138Z,96503.00
2023-01-17T06:39:32.117Z,96504.47
2023-01-17T06:42:00.858Z,96510.66
2023-01-17T06:44:27.882Z,96514.09
2023-01-17T06:46:54.969Z,96515.34
2023-01-17T06:49:22.068Z,96508.91
2023-01-17T06:51:49.039Z,96517.44
2023-01-17T06:54:15.919Z,96514.28
2023-01-17T06:56:42.895Z,96525.16
2023-01-17T06:59:10.023Z,96511.47
2023-01-17T07:01:37.137Z,96515.72
2023-01-17T07:04:04.747Z,96531.31
2023-01-17T07:06:31.807Z,96528.09
2023-01-17T07:08:59.264Z,96532.75
2023-01-17T07:11:27.421Z,96537.03
2023-01-17T07:13:54.566Z,96531.16
2023-01-17T07:16:21.625Z,96540.84
2023-01-17T07:18:48.648Z,96538.53
2023-01-17T07:21:15.655Z,96520.31
2023-01-17T07:23:42.584Z,96541.25
2023-01-17T07:26:09.606Z,96543.16
2023-01-17T07:28:36.808Z,96541.19
2023-01-17T07:31:08.074Z,96521.78
2023-01-17T07:33:35.126Z,96543.19
2023-01-17T07:36:09.461Z,96543.06
2023-01-17T07:38:36.571Z,96537.19
2023-01-17T07:41:03.726Z,96544.28
2023-01-17T07:43:30.802Z,96550.59
2023-01-17T07:46:01.303Z,96543.09
2023-01-17T07:48:29.238Z,96553.66
2023-01-17T07:50:57.005Z,96545.44
2023-01-17T07:53:28.400Z,96551.31
2023-01-17T07:55:55.740Z,96550.13
2023-01-17T07:58:22.981Z,96560.22
2023-01-17T08:00:50.108Z,96558.34
2023-01-17T08:03:17.694Z,96561.47
2023-01-17T08:05:53.110Z,96560.69
2023-01-17T08:08:20.084Z,96571.63
2023-01-17T08:10:47.349Z,96575.94
2023-01-17T08:13:14.351Z,96574.81
2023-01-17T08:15:41.286Z,96578.66
2023-01-17T08:18:08.173Z,96575.47
2023-01-17T08:20:35.161Z,96580.94
2023-01-17T08:23:02.115Z,96579.03
2023-01-17T08:25:29.124Z,96582.06
2023-01-17T08:27:57.023Z,96584.78
2023-01-17T08:30:24.218Z,96579.63
2023-01-17T08:32:51.204Z,96589.00
2023-01-17T08:35:20.175Z,96597.09
2023-01-17T08:37:48.025Z,96592.75
2023-01-17T08:40:20.560Z,96584.59
2023-01-17T08:42:55.104Z,96600.44
2023-01-17T08:45:21.892Z,96608.97
2023-01-17T08:47:48.809Z,96610.09
2023-01-17T08:50:20.665Z,96622.13
2023-01-17T08:52:50.776Z,96615.84
2023-01-17T08:55:17.853Z,96618.16
2023-01-17T08:57:44.886Z,96616.22
2023-01-17T09:00:12.192Z,96631.28
2023-01-17T09:02:39.123Z,96629.69
2023-01-17T09:05:06.730Z,96636.69
2023-01-17T09:07:33.766Z,96632.28
2023-01-17T09:10:00.656Z,96636.13
2023-01-17T09:12:27.599Z,96634.44
2023-01-17T09:14:54.525Z,96641.53
2023-01-17T09:17:21.497Z,96650.16
2023-01-17T09:19:48.902Z,96653.75
2023-01-17T09:22:15.826Z,96649.91
2023-01-17T09:24:42.689Z,96650.78
2023-01-17T09:27:09.656Z,96642.16
2023-01-17T09:29:36.614Z,96643.59
2023-01-17T09:32:03.762Z,96634.84
2023-01-17T09:34:30.745Z,96636.81
2023-01-17T09:36:57.636Z,96627.13
2023-01-17T09:39:24.815Z,96632.81
2023-01-17T09:42:16.738Z,96640.09
2023-01-17T09:44:47.904Z,96626.03
2023-01-17T09:47:24.052Z,96622.84
2023-01-17T09:49:51.080Z,96629.81
2023-01-17T09:52:21.099Z,96616.16
2023-01-17T09:54:48.619Z,96639.19
2023-01-17T09:57:29.611Z,96638.34
2023-01-17T10:00:09.622Z,96639.47
2023-01-17T10:02:45.753Z,96650.34
2023-01-17T10:05:37.792Z,96621.09
2023-01-17T10:08:07.498Z,96642.84
2023-01-17T10:10:54.110Z,96652.09
2023-01-17T10:13:27.944Z,96644.94
2023-01-17T10:16:07.134Z,96642.19
2023-01-17T10:18:40.134Z,96644.88
2023-01-17T10:21:33.488Z,96627.63
2023-01-17T10:24:03.852Z,96653.22
2023-01-17T10:26:30.814Z,96656.31
2023-01-17T10:29:02.883Z,96645.19
2023-01-17T10:31:34.971Z,96643.88
2023-01-17T10:34:11.928Z,96646.13
2023-01-17T10:36:41.358Z,96622.38
2023-01-17T10:39:24.987Z,96634.03
2023-01-17T10:42:00.278Z,96625.31
2023-01-17T10:44:39.459Z,96648.84
2023-01-17T10:47:12.328Z,96655.50
2023-01-17T10:49:45.315Z,96647.22
2023-01-17T10:52:24.259Z,96649.44
2023-01-17T10:55:17.099Z,96654.34
2023-01-17T10:57:45.125Z,96657.09
2023-01-17T11:00:33.791Z,96666.00
2023-01-17T11:03:01.229Z,96659.66
2023-01-17T11:05:30.330Z,96652.47
2023-01-17T11:08:04.055Z,96653.66
2023-01-17T11:10:39.968Z,96647.69
2023-01-17T11:13:27.476Z,96636.91
2023-01-17T11:16:06.204Z,96633.50
2023-01-17T11:18:38.182Z,96646.47
2023-01-17T11:21:24.228Z,96626.94
2023-01-17T11:23:53.811Z,96638.03
2023-01-17T11:26:33.061Z,96635.69
2023-01-17T11:29:36.994Z,96639.66
2023-01-17T11:32:22.146Z,96629.50
2023-01-17T11:35:07.465Z,96628.13
2023-01-17T11:37:35.257Z,96620.28
2023-01-17T11:40:09.272Z,96616.75
2023-01-17T11:42:37.493Z,96619.16
2023-01-17T11:45:37.115Z,96610.88
2023-01-17T11:48:12.815Z,96612.19
2023-01-17T11:51:02.402Z,96590.00
2023-01-17T11:53:33.783Z,96577.63
2023-01-17T11:56:33.075Z,96595.03
2023-01-17T11:59:40.136Z,96587.69
2023-01-17T12:02:40.985Z,96591.84
2023-01-17T12:05:38.645Z,96590.34
2023-01-17T12:08:14.404Z,96589.47
2023-01-17T12:10:52.262Z,96589.97
2023-01-17T12:14:00.775Z,96602.44
2023-01-17T12:17:01.864Z,96595.22
2023-01-17T12:19:48.975Z,96591.94
2023-01-17T12:22:18.781Z,96585.66
2023-01-17T12:25:15.032Z,96587.97
2023-01-17T12:27:47.923Z,96593.84
2023-01-17T12:30:24.047Z,96598.31
2023-01-17T12:33:13.308Z,96595.88
2023-01-17T12:35:44.017Z,96598.00
2023-01-17T12:38:27.491Z,96594.41
2023-01-17T12:41:32.883Z,96597.84
2023-01-17T12:44:00.310Z,96592.81
2023-01-17T12:46:34.305Z,96559.03
2023-01-17T12:49:28.874Z,96577.31
2023-01-17T12:52:20.221Z,96580.22
2023-01-17T12:54:50.432Z,96582.44
2023-01-17T12:57:40.027Z,96559.94
2023-01-17T13:00:10.655Z,96581.28
2023-01-17T13:03:03.286Z,96585.88
2023-01-17T13:05:38.330Z,96593.34
2023-01-17T13:08:05.292Z,96579.13
2023-01-17T13:10:55.772Z,96596.50
2023-01-17T13:13:25.661Z,96593.88
2023-01-17T13:15:55.450Z,96599.00
2023-01-17T13:18:26.153Z,96602.22
2023-01-17T13:20:56.757Z,96598.66
2023-01-17T13:23:30.877Z,96603.97
2023-01-17T13:25:58.649Z,96602.38
2023-01-17T13:28:37.864Z,96610.13
2023-01-17T13:31:25.912Z,96614.44
2023-01-17T13:34:01.087Z,96591.53
2023-01-17T13:36:38.093Z,96616.47
2023-01-17T13:39:17.770Z,96586.94
2023-01-17T13:41:51.443Z,96607.25
2023-01-17T13:44:21.585Z,96586.00
2023-01-17T13:47:06.655Z,96586.53
2023-01-17T13:49:50.791Z,96597.44
2023-01-17T13:52:20.758Z,96599.88
2023-01-17T13:54:51.017Z,96610.16
2023-01-17T13:57:32.783Z,96627.88
2023-01-17T14:00:15.968Z,96608.19
2023-01-17T14:02:43.401Z,96653.56
2023-01-17T14:05:17.544Z,96654.38
2023-01-17T14:07:57.645Z,96659.97
2023-01-17T14:10:27.223Z,96666.75
2023-01-17T14:12:54.568Z,96669.16
2023-01-17T14:15:23.798Z,96664.94
2023-01-17T14:17:57.343Z,96669.69
2023-01-17T14:20:27.504Z,96670.56
2023-01-17T14:22:58.021Z,96679.63
2023-01-17T14:25:28.767Z,96652.84
2023-01-17T14:27:58.891Z,96682.91
2023-01-17T14:30:32.405Z,96685.75
2023-01-17T14:33:00.919Z,96683.38
2023-01-17T14:35:32.984Z,96686.59
2023-01-17T14:38:03.199Z,96658.63
2023-01-17T14:40:32.481Z,96669.63
2023-01-17T14:43:13.212Z,96685.25
2023-01-17T14:45:40.276Z,96687.66
2023-01-17T14:48:20.210Z,96698.28
2023-01-17T14:50:48.408Z,96696.00
2023-01-17T14:53:26.055Z,96669.53
2023-01-17T14:55:59.848Z,96696.03
2023-01-17T14:58:34.297Z,96687.88
2023-01-17T15:01:21.528Z,96680.13
2023-01-17T15:03:55.159Z,96675.09
2023-01-17T15:06:24.830Z,96676.34
2023-01-17T15:08:54.719Z,96672.06
2023-01-17T15:11:26.727Z,96662.34
2023-01-17T15:13:57.431Z,96673.34
2023-01-17T15:16:30.910Z,96643.72
2023-01-17T15:18:57.987Z,96664.00
2023-01-17T15:21:29.241Z,96658.19
2023-01-17T15:24:01.490Z,96660.16
2023-01-17T15:26:30.130Z,96660.56
2023-01-17T15:29:05.314Z,96651.97
2023-01-17T15:31:49.304Z,96625.50
2023-01-17T15:34:27.321Z,96638.00
2023-01-17T15:36:57.360Z,96641.53
2023-01-17T15:39:30.441Z,96635.72
2023-01-17T15:42:07.989Z,96604.91
2023-01-17T15:44:48.493Z,96637.28
2023-01-17T15:47:35.556Z,96644.72
2023-01-17T15:50:17.907Z,96638.84
2023-01-17T15:52:49.317Z,96631.44
2023-01-17T15:55:23.680Z,96633.00
2023-01-17T15:57:50.637Z,96625.97
2023-01-17T16:00:20.979Z,96628.31
2023-01-17T16:02:55.530Z,96620.50
2023-01-17T16:05:31.092Z,96622.09
2023-01-17T16:08:04.662Z,96623.63
2023-01-17T16:10:32.870Z,96617.78
2023-01-17T16:12:59.908Z,96617.00
2023-01-17T16:15:27.182Z,96608.84
2023-01-17T16:18:17.617Z,96604.94
2023-01-17T16:20:52.233Z,96601.41
2023-01-17T16:23:19.168Z,96603.72
2023-01-17T16:25:46.251Z,96607.22
2023-01-17T16:28:13.211Z,96584.53
2023-01-17T16:30:40.219Z,96601.72
2023-01-17T16:33:10.019Z,96570.88
2023-01-17T16:35:36.960Z,96571.22
2023-01-17T16:38:05.745Z,96595.03
2023-01-17T16:40:33.918Z,96590.34
2023-01-17T16:43:01.041Z,96577.44
2023-01-17T16:45:27.904Z,96582.09
2023-01-17T16:47:54.827Z,96587.09
2023-01-17T16:50:23.639Z,96576.16
2023-01-17T16:52:53.989Z,96565.63
2023-01-17T16:55:22.138Z,96569.06
2023-01-17T16:57:49.852Z,96572.94
2023-01-17T17:00:17.351Z,96560.81
2023-01-17T17:02:44.375Z,96560.75
2023-01-17T17:05:11.436Z,96562.66
2023-01-17T17:07:44.124Z,96567.63
2023-01-17T17:10:14.827Z,96543.72
2023-01-17T17:12:41.848Z,96559.72
2023-01-17T17:15:09.725Z,96566.69
2023-01-17T17:17:37.625Z,96565.50
2023-01-17T17:20:05.673Z,96579.06
2023-01-17T17:22:33.004Z,96587.56
2023-01-17T17:25:00.015Z,96570.28
2023-01-17T17:27:27.824Z,96580.41
2023-01-17T17:29:54.764Z,96600.66
2023-01-17T17:32:21.746Z,96605.28
2023-01-17T17:34:50.778Z,96596.66
2023-01-17T17:37:17.782Z,96595.50
2023-01-17T17:39:45.348Z,96584.19
2023-01-17T17:42:12.542Z,96583.78
2023-01-17T17:44:39.358Z,96577.53
2023-01-17T17:47:06.248Z,96573.94
2023-01-17T17:49:33.120Z,96592.53
2023-01-17T17:52:04.540Z,96597.16
2023-01-17T17:54:31.508Z,96607.22
2023-01-17T17:56:58.339Z,96612.97
2023-01-17T17:59:25.283Z,96623.00
2023-01-17T18:01:52.384Z,96626.41
2023-01-17T18:04:19.542Z,96617.78
2023-01-17T18:06:46.549Z,96618.50
2023-01-17T18:09:13.476Z,96620.72
2023-01-17T18:11:41.508Z,96591.31
2023-01-17T18:14:09.640Z,96618.25
2023-01-17T18:16:41.732Z,96621.59
2023-01-17T18:19:14.836Z,96616.03
2023-01-17T18:21:41.773Z,96599.16
2023-01-17T18:24:13.316Z,96598.63
2023-01-17T18:26:41.597Z,96609.97
2023-01-17T18:29:09.686Z,96607.56
2023-01-17T18:31:36.680Z,96605.56
2023-01-17T18:34:05.425Z,96597.78
2023-01-17T18:36:34.378Z,96614.41
2023-01-17T18:39:02.379Z,96614.34
2023-01-17T18:41:30.128Z,96605.72
2023-01-17T18:43:57.273Z,96615.72
2023-01-17T18:46:26.003Z,96595.25
2023-01-17T18:48:55.040Z,96602.34
2023-01-17T18:51:21.950Z,96602.66
2023-01-17T18:53:48.856Z,96595.97
2023-01-17T18:56:18.138Z,96585.44
2023-01-17T18:58:46.115Z,96571.28
2023-01-17T19:01:14.017Z,96584.94
2023-01-17T19:03:41.783Z,96584.84
2023-01-17T19:06:11.005Z,96590.56
2023-01-17T19:08:38.114Z,96567.31
2023-01-17T19:11:05.184Z,96597.00
2023-01-17T19:13:32.792Z,96608.56
2023-01-17T19:16:01.068Z,96603.84
2023-01-17T19:18:28.113Z,96597.59
2023-01-17T19:20:55.132Z,96594.91
2023-01-17T19:23:23.221Z,96601.44
2023-01-17T19:25:54.826Z,96565.13
2023-01-17T19:28:22.009Z,96574.28
2023-01-17T19:30:49.572Z,96571.53
2023-01-17T19:33:16.406Z,96567.16
2023-01-17T19:35:43.362Z,96566.38
2023-01-17T19:38:10.211Z,96509.31
2023-01-17T19:40:37.075Z,96557.81
2023-01-17T19:43:04.603Z,96552.00
2023-01-17T19:45:31.549Z,96544.16
2023-01-17T19:47:58.536Z,96494.03
2023-01-17T19:50:25.442Z,96541.75
2023-01-17T19:52:53.223Z,96531.56
2023-01-17T19:55:25.598Z,96526.75
2023-01-17T19:57:52.568Z,96527.91
2023-01-17T20:00:22.099Z,96520.50
2023-01-17T20:02:49.816Z,96527.72
2023-01-17T20:05:17.295Z,96515.28
2023-01-17T20:07:44.109Z,96501.59
2023-01-17T20:10:11.253Z,96464.75
2023-01-17T20:12:38.159Z,96499.53
2023-01-17T20:15:06.248Z,96473.91
2023-01-17T20:17:34.597Z,96489.22
2023-01-17T20:20:01.603Z,96491.84
2023-01-17T20:22:28.462Z,96496.47
2023-01-17T20:24:55.369Z,96504.09
2023-01-17T20:27:26.590Z,96504.81
2023-01-17T20:29:53.480Z,96502.31
2023-01-17T20:32:20.305Z,96513.13
2023-01-17T20:34:48.124Z,96513.84
2023-01-17T20:37:15.032Z,96511.00
2023-01-17T20:39:41.876Z,96514.44
2023-01-17T20:42:08.747Z,96518.97
2023-01-17T20:44:37.339Z,96519.69
2023-01-17T20:47:04.213Z,96505.31
2023-01-17T20:49:32.720Z,96500.94
2023-01-17T20:52:02.272Z,96482.59
2023-01-17T20:54:30.449Z,96498.19
2023-01-17T20:56:57.322Z,96513.47
2023-01-17T20:59:24.212Z,96502.66
2023-01-17T21:01:51.777Z,96506.84
2023-01-17T21:04:25.615Z,96502.09
2023-01-17T21:06:53.381Z,96496.44
2023-01-17T21:09:21.383Z,96480.69
2023-01-17T21:11:48.356Z,96504.97
2023-01-17T21:14:15.239Z,96490.00
2023-01-17T21:16:42.178Z,96521.28
2023-01-17T21:19:12.092Z,96527.47
2023-01-17T21:21:39.124Z,96520.50
2023-01-17T21:24:06.193Z,96524.31
2023-01-17T21:26:33.339Z,96530.59
2023-01-17T21:29:01.562Z,96530.94
2023-01-17T21:31:29.841Z,96522.75
2023-01-17T21:33:58.225Z,96535.13
2023-01-17T21:36:26.813Z,96501.38
2023-01-17T21:38:56.861Z,96532.78
2023-01-17T21:41:26.563Z,96499.97
2023-01-17T21:43:54.196Z,96524.94
2023-01-17T21:46:21.180Z,96526.44
2023-01-17T21:48:48.079Z,96533.44
2023-01-17T21:51:15.093Z,96528.34
2023-01-17T21:53:41.930Z,96526.00
2023-01-17T21:56:30.473Z,96527.91
2023-01-17T21:58:57.556Z,96515.47
2023-01-17T22:01:28.880Z,96518.09
2023-01-17T22:04:03.001Z,96516.44
2023-01-17T22:06:31.542Z,96520.53
2023-01-17T22:08:58.479Z,96514.28
2023-01-17T22:11:26.333Z,96502.78
2023-01-17T22:13:53.309Z,96499.38
2023-01-17T22:16:23.015Z,96493.53
2023-01-17T22:18:50.055Z,96495.78
2023-01-17T22:21:19.641Z,96471.06
2023-01-17T22:23:51.717Z,96490.31
2023-01-17T22:26:18.875Z,96490.22
2023-01-17T22:28:45.943Z,96493.56
2023-01-17T22:31:19.128Z,96490.41
2023-01-17T22:33:46.450Z,96479.06
2023-01-17T22:36:13.867Z,96462.41
2023-01-17T22:38:41.602Z,96436.13
2023-01-17T22:41:10.237Z,96422.53
2023-01-17T22:43:38.457Z,96437.50
2023-01-17T22:46:06.363Z,96437.88
2023-01-17T22:48:34.048Z,96434.72
2023-01-17T22:51:02.373Z,96423.47
2023-01-17T22:53:30.296Z,96424.97
2023-01-17T22:56:07.276Z,96430.28
2023-01-17T22:58:34.329Z,96439.84
2023-01-17T23:01:11.201Z,96437.84
2023-01-17T23:03:38.342Z,96427.75
2023-01-17T23:06:15.054Z,96412.69
2023-01-17T23:08:43.513Z,96413.72
2023-01-17T23:11:43.438Z,96390.50
2023-01-17T23:14:18.330Z,96381.53
2023-01-17T23:17:13.483Z,96409.66
2023-01-17T23:19:43.285Z,96408.78
2023-01-17T23:22:19.077Z,96405.41
2023-01-17T23:24:48.562Z,96389.19
2023-01-17T23:27:39.852Z,96382.66
2023-01-17T23:30:20.692Z,96384.22
2023-01-17T23:33:01.106Z,96376.13
2023-01-17T23:35:29.726Z,96378.41
2023-01-17T23:38:15.133Z,96372.22
2023-01-17T23:40:42.198Z,96374.56
2023-01-17T23:43:25.402Z,96373.09
2023-01-17T23:45:53.209Z,96372.66
2023-01-17T23:48:20.822Z,96349.94
2023-01-17T23:50:48.036Z,96364.47
2023-01-17T23:53:22.198Z,96326.88
2023-01-17T23:55:53.635Z,96363.63
2023-01-17T23:58:22.073Z,96364.31
